createdAt,value
2023-05-17T00:02:19.006Z,2.53
2023-05-17T00:07:20.788Z,2.28
2023-05-17T00:12:22.576Z,2.10
2023-05-17T00:17:24.428Z,2.25
2023-05-17T00:22:26.237Z,2.20
2023-05-17T00:27:28.188Z,1.88
2023-05-17T00:32:30.327Z,2.22
2023-05-17T00:37:32.114Z,2.30
2023-05-17T00:42:33.874Z,2.03
2023-05-17T00:47:35.957Z,2.28
2023-05-17T00:52:38.283Z,3.13
2023-05-17T00:57:40.335Z,2.13
2023-05-17T01:02:44.566Z,1.80
2023-05-17T01:07:46.487Z,2.10
2023-05-17T01:13:02.614Z,1.90
2023-05-17T01:18:16.261Z,1.98
2023-05-17T01:23:50.821Z,1.90
2023-05-17T01:28:54.374Z,2.22
2023-05-17T01:33:58.726Z,2.40
2023-05-17T01:39:01.622Z,1.98
2023-05-17T01:44:19.095Z,2.17
2023-05-17T01:49:26.676Z,2.30
2023-05-17T01:54:37.861Z,1.95
2023-05-17T01:59:42.026Z,1.95
2023-05-17T02:04:43.923Z,2.00
2023-05-17T02:09:46.002Z,1.60
2023-05-17T02:14:48.011Z,1.90
2023-05-17T02:19:50.033Z,2.13
2023-05-17T02:24:51.860Z,2.22
2023-05-17T02:29:53.711Z,1.85
2023-05-17T02:34:55.939Z,1.73
2023-05-17T02:39:58.424Z,6.25
2023-05-17T02:45:00.332Z,1.92
2023-05-17T02:50:02.160Z,1.90
2023-05-17T02:55:05.961Z,1.60
2023-05-17T03:00:09.294Z,1.83
2023-05-17T03:05:11.299Z,1.80
2023-05-17T03:10:18.586Z,1.70
2023-05-17T03:15:21.629Z,1.70
2023-05-17T03:20:24.116Z,1.77
2023-05-17T03:25:26.185Z,1.52
2023-05-17T03:30:28.282Z,1.20
2023-05-17T03:35:30.691Z,1.80
2023-05-17T03:40:33.246Z,2.25
2023-05-17T03:45:36.064Z,1.90
2023-05-17T03:50:40.959Z,1.70
2023-05-17T03:55:43.834Z,2.10
2023-05-17T04:00:45.719Z,1.80
2023-05-17T04:05:51.587Z,1.70
2023-05-17T04:10:53.708Z,1.48
2023-05-17T04:15:55.711Z,1.38
2023-05-17T04:20:57.935Z,1.88
2023-05-17T04:26:00.034Z,3.53
2023-05-17T04:31:08.202Z,1.50
2023-05-17T04:36:10.244Z,1.80
2023-05-17T04:41:13.614Z,1.77
2023-05-17T04:46:17.400Z,1.38
2023-05-17T04:51:19.309Z,1.60
2023-05-17T04:56:22.594Z,1.58
2023-05-17T05:01:25.130Z,1.60
2023-05-17T05:06:27.672Z,1.30
2023-05-17T05:11:31.858Z,1.17
2023-05-17T05:16:34.695Z,1.42
2023-05-17T05:21:36.778Z,1.20
2023-05-17T05:26:39.960Z,1.70
2023-05-17T05:31:43.647Z,1.42
2023-05-17T05:36:47.181Z,1.75
2023-05-17T05:41:51.892Z,1.35
2023-05-17T05:46:54.330Z,1.80
2023-05-17T05:51:56.536Z,1.92
2023-05-17T05:57:03.531Z,1.67
2023-05-17T06:02:05.525Z,1.65
2023-05-17T06:07:07.515Z,1.77
2023-05-17T06:12:09.821Z,1.70
2023-05-17T06:17:11.699Z,1.85
2023-05-17T06:22:13.489Z,1.50
2023-05-17T06:27:15.326Z,2.70
2023-05-17T06:32:17.177Z,1.95
2023-05-17T06:37:18.946Z,1.95
2023-05-17T06:42:20.870Z,1.80
2023-05-17T06:47:22.769Z,1.42
2023-05-17T06:52:24.765Z,1.30
2023-05-17T06:57:26.817Z,1.90
2023-05-17T07:02:33.091Z,1.70
2023-05-17T07:07:36.392Z,2.85
2023-05-17T07:12:38.983Z,1.95
2023-05-17T07:17:40.989Z,2.00
2023-05-17T07:22:42.853Z,1.83
2023-05-17T07:27:44.786Z,2.08
2023-05-17T07:32:46.865Z,2.47
2023-05-17T07:37:49.181Z,2.22
2023-05-17T07:42:51.164Z,2.40
2023-05-17T07:47:53.182Z,1.83
2023-05-17T07:52:55.049Z,2.15
2023-05-17T07:57:56.899Z,2.30
2023-05-17T08:02:58.751Z,1.95
2023-05-17T08:08:03.102Z,2.03
2023-05-17T08:13:06.402Z,2.10
2023-05-17T08:18:08.542Z,2.35
2023-05-17T08:23:10.413Z,2.40
2023-05-17T08:28:12.916Z,2.33
2023-05-17T08:33:14.802Z,2.72
2023-05-17T08:38:18.024Z,2.00
2023-05-17T08:43:25.258Z,1.90
2023-05-17T08:48:33.459Z,2.15
2023-05-17T08:53:38.003Z,2.38
2023-05-17T08:58:55.683Z,2.50
2023-05-17T09:04:00.134Z,2.95
2023-05-17T09:09:02.083Z,2.17
2023-05-17T09:14:06.158Z,2.08
2023-05-17T09:19:09.150Z,2.70
2023-05-17T09:24:11.106Z,2.55
2023-05-17T09:29:15.109Z,2.17
2023-05-17T09:34:19.664Z,2.20
2023-05-17T09:39:22.375Z,2.63
2023-05-17T09:44:25.485Z,2.30
2023-05-17T09:49:31.375Z,2.30
2023-05-17T09:54:37.980Z,2.80
2023-05-17T09:59:40.203Z,2.55
2023-05-17T10:04:43.566Z,2.95
2023-05-17T10:09:47.870Z,2.20
2023-05-17T10:14:51.098Z,2.45
2023-05-17T10:19:54.896Z,2.55
2023-05-17T10:24:56.808Z,2.72
2023-05-17T10:29:59.825Z,2.83
2023-05-17T10:35:11.181Z,2.30
2023-05-17T10:40:14.344Z,3.00
2023-05-17T10:45:16.332Z,2.85
2023-05-17T10:50:27.428Z,3.00
2023-05-17T10:55:42.129Z,3.03
2023-05-17T11:00:49.365Z,2.85
2023-05-17T11:06:13.184Z,2.87
2023-05-17T11:11:21.122Z,3.08
2023-05-17T11:16:28.001Z,2.55
2023-05-17T11:21:30.503Z,2.30
2023-05-17T11:26:38.152Z,2.65
2023-05-17T11:31:45.257Z,2.90
2023-05-17T11:36:55.734Z,2.63
2023-05-17T11:41:57.898Z,2.63
2023-05-17T11:47:03.637Z,2.80
2023-05-17T11:52:06.481Z,2.78
2023-05-17T11:57:09.341Z,3.22
2023-05-17T12:02:25.772Z,2.70
2023-05-17T12:07:28.060Z,2.67
2023-05-17T12:12:29.942Z,2.88
2023-05-17T12:17:37.496Z,2.88
2023-05-17T12:22:53.536Z,3.17
2023-05-17T12:28:13.953Z,3.13
2023-05-17T12:33:16.124Z,2.95
2023-05-17T12:38:19.232Z,3.40
2023-05-17T12:43:24.516Z,3.78
2023-05-17T12:48:27.160Z,4.93
2023-05-17T12:53:55.087Z,5.40
2023-05-17T12:59:16.843Z,3.87
2023-05-17T13:04:20.844Z,3.33
2023-05-17T13:09:24.105Z,3.22
2023-05-17T13:14:45.646Z,3.75
2023-05-17T13:19:48.641Z,3.45
2023-05-17T13:24:51.245Z,3.97
2023-05-17T13:29:53.122Z,4.13
2023-05-17T13:34:55.152Z,4.05
2023-05-17T13:39:56.952Z,5.00
2023-05-17T13:44:58.985Z,4.20
2023-05-17T13:50:01.047Z,4.72
2023-05-17T13:55:03.134Z,4.65
2023-05-17T14:00:05.727Z,4.80
2023-05-17T14:05:09.876Z,5.47
2023-05-17T14:10:13.081Z,5.65
2023-05-17T14:15:15.240Z,5.57
2023-05-17T14:20:17.201Z,5.95
2023-05-17T14:25:19.052Z,5.65
2023-05-17T14:30:21.558Z,5.97
2023-05-17T14:35:23.367Z,5.15
2023-05-17T14:40:25.246Z,5.57
2023-05-17T14:45:27.072Z,6.47
2023-05-17T14:50:29.248Z,6.30
2023-05-17T14:55:31.424Z,5.68
2023-05-17T15:00:33.514Z,5.55
2023-05-17T15:05:37.734Z,5.97
2023-05-17T15:10:39.673Z,5.78
2023-05-17T15:15:42.940Z,6.40
2023-05-17T15:20:45.079Z,6.00
2023-05-17T15:25:46.969Z,5.45
2023-05-17T15:30:48.841Z,6.13
2023-05-17T15:35:52.042Z,6.18
2023-05-17T15:41:05.753Z,5.95
2023-05-17T15:46:07.638Z,5.38
2023-05-17T15:51:10.099Z,5.45
2023-05-17T15:56:12.013Z,5.88
2023-05-17T16:01:13.957Z,5.60
2023-05-17T16:06:16.252Z,5.57
2023-05-17T16:11:18.181Z,6.18
2023-05-17T16:16:19.999Z,5.28
2023-05-17T16:21:21.935Z,6.28
2023-05-17T16:26:23.826Z,6.38
2023-05-17T16:31:25.766Z,5.50
2023-05-17T16:36:27.926Z,5.50
2023-05-17T16:41:31.782Z,5.53
2023-05-17T16:46:34.224Z,6.10
2023-05-17T16:51:37.702Z,4.82
2023-05-17T16:56:39.543Z,5.13
2023-05-17T17:01:41.691Z,5.07
2023-05-17T17:06:43.642Z,5.22
2023-05-17T17:11:46.255Z,4.70
2023-05-17T17:16:48.096Z,4.53
2023-05-17T17:21:49.896Z,4.80
2023-05-17T17:26:52.081Z,5.40
2023-05-17T17:31:55.177Z,4.50
2023-05-17T17:36:57.918Z,4.75
2023-05-17T17:41:59.727Z,4.78
2023-05-17T17:47:01.641Z,4.72
2023-05-17T17:52:03.566Z,4.90
2023-05-17T17:57:05.747Z,4.88
2023-05-17T18:02:07.551Z,5.03
2023-05-17T18:07:09.763Z,5.07
2023-05-17T18:12:11.742Z,4.88
2023-05-17T18:17:13.577Z,4.70
2023-05-17T18:22:16.909Z,4.78
2023-05-17T18:27:20.036Z,4.55
2023-05-17T18:32:21.939Z,4.85
2023-05-17T18:37:23.800Z,4.93
2023-05-17T18:42:25.740Z,4.70
2023-05-17T18:47:28.007Z,4.53
2023-05-17T18:52:30.052Z,4.72
2023-05-17T18:57:31.868Z,4.53
2023-05-17T19:02:33.803Z,4.70
2023-05-17T19:07:35.797Z,4.63
2023-05-17T19:12:37.763Z,4.78
2023-05-17T19:17:40.016Z,4.68
2023-05-17T19:22:42.031Z,4.30
2023-05-17T19:27:43.988Z,4.63
2023-05-17T19:32:45.881Z,5.07
2023-05-17T19:37:47.813Z,4.63
2023-05-17T19:42:49.760Z,4.57
2023-05-17T19:47:53.471Z,4.30
2023-05-17T19:52:55.668Z,4.78
2023-05-17T19:57:57.754Z,5.82
2023-05-17T20:03:00.103Z,5.45
2023-05-17T20:08:02.810Z,5.53
2023-05-17T20:13:05.330Z,4.72
2023-05-17T20:18:09.185Z,4.97
2023-05-17T20:23:13.402Z,5.63
2023-05-17T20:28:15.349Z,5.20
2023-05-17T20:33:21.463Z,5.18
2023-05-17T20:38:23.401Z,5.05
2023-05-17T20:43:28.749Z,5.10
2023-05-17T20:48:30.612Z,5.47
2023-05-17T20:53:32.626Z,5.13
2023-05-17T20:58:34.783Z,4.75
2023-05-17T21:03:39.446Z,4.43
2023-05-17T21:08:42.907Z,5.05
2023-05-17T21:13:44.712Z,5.53
2023-05-17T21:18:46.765Z,5.55
2023-05-17T21:23:49.919Z,5.53
2023-05-17T21:28:51.848Z,4.85
2023-05-17T21:33:53.697Z,4.97
2023-05-17T21:38:55.484Z,5.32
2023-05-17T21:43:57.332Z,5.78
2023-05-17T21:48:59.184Z,5.22
2023-05-17T21:54:01.258Z,5.47
2023-05-17T21:59:03.884Z,5.35
2023-05-17T22:04:06.009Z,5.28
2023-05-17T22:09:09.471Z,4.93
2023-05-17T22:14:11.757Z,4.78
2023-05-17T22:19:13.874Z,4.80
2023-05-17T22:24:15.862Z,4.43
2023-05-17T22:29:17.700Z,5.00
2023-05-17T22:34:19.571Z,4.88
2023-05-17T22:39:21.838Z,5.10
2023-05-17T22:44:23.661Z,5.10
2023-05-17T22:49:25.897Z,5.82
2023-05-17T22:54:27.800Z,5.95
2023-05-17T22:59:30.975Z,5.40
2023-05-17T23:04:33.134Z,5.82
2023-05-17T23:09:37.950Z,5.90
2023-05-17T23:14:39.834Z,5.82
2023-05-17T23:19:41.724Z,5.15
2023-05-17T23:24:46.466Z,5.32
2023-05-17T23:29:48.251Z,5.95
2023-05-17T23:34:50.677Z,5.68
2023-05-17T23:39:52.616Z,5.47
2023-05-17T23:44:54.470Z,5.00
2023-05-17T23:49:56.501Z,6.20
2023-05-17T23:54:59.069Z,5.93
